sensor_id;sensor_type;location;lat;lon;timestamp;pressure;altitude;pressure_sealevel;temperature;humidity
40596;BME280;26304;48.794;9.820;2023-06-14T00:00:39;95916.97;;;18.28;41.66
40596;BME280;26304;48.794;9.820;2023-06-14T00:06:24;95907.25;;;18.11;42.11
40596;BME280;26304;48.794;9.820;2023-06-14T00:12:08;95915.16;;;18.00;41.78
40596;BME280;26304;48.794;9.820;2023-06-14T00:17:51;95911.34;;;18.15;41.98
40596;BME280;26304;48.794;9.820;2023-06-14T00:23:33;95904.59;;;18.07;41.60
40596;BME280;26304;48.794;9.820;2023-06-14T00:29:17;95903.13;;;17.92;42.37
40596;BME280;26304;48.794;9.820;2023-06-14T00:34:59;95910.63;;;17.83;42.16
40596;BME280;26304;48.794;9.820;2023-06-14T00:40:42;95900.09;;;17.68;42.32
40596;BME280;26304;48.794;9.820;2023-06-14T00:46:26;95906.84;;;17.48;42.72
40596;BME280;26304;48.794;9.820;2023-06-14T00:52:08;95902.31;;;17.52;43.39
40596;BME280;26304;48.794;9.820;2023-06-14T00:57:54;95900.78;;;17.22;44.29
40596;BME280;26304;48.794;9.820;2023-06-14T01:03:38;95892.53;;;17.31;43.32
40596;BME280;26304;48.794;9.820;2023-06-14T01:09:32;95897.75;;;17.09;43.77
40596;BME280;26304;48.794;9.820;2023-06-14T01:15:20;95897.00;;;17.16;44.05
40596;BME280;26304;48.794;9.820;2023-06-14T01:21:04;95896.69;;;17.42;43.17
40596;BME280;26304;48.794;9.820;2023-06-14T01:26:49;95898.53;;;17.24;43.87
40596;BME280;26304;48.794;9.820;2023-06-14T01:32:37;95891.72;;;16.98;44.52
40596;BME280;26304;48.794;9.820;2023-06-14T01:38:22;95885.38;;;17.13;43.77
40596;BME280;26304;48.794;9.820;2023-06-14T01:44:07;95892.91;;;17.18;43.79
40596;BME280;26304;48.794;9.820;2023-06-14T01:49:50;95892.56;;;17.34;43.99
40596;BME280;26304;48.794;9.820;2023-06-14T01:55:33;95888.78;;;17.14;44.33
40596;BME280;26304;48.794;9.820;2023-06-14T02:01:20;95896.66;;;17.14;43.83
40596;BME280;26304;48.794;9.820;2023-06-14T02:07:03;95896.28;;;17.26;43.37
40596;BME280;26304;48.794;9.820;2023-06-14T02:12:45;95884.28;;;17.29;43.39
40596;BME280;26304;48.794;9.820;2023-06-14T02:18:29;95890.69;;;17.38;43.09
40596;BME280;26304;48.794;9.820;2023-06-14T02:24:12;95891.06;;;17.44;42.91
40596;BME280;26304;48.794;9.820;2023-06-14T02:29:55;95886.91;;;17.29;43.33
40596;BME280;26304;48.794;9.820;2023-06-14T02:35:38;95888.06;;;17.49;42.44
40596;BME280;26304;48.794;9.820;2023-06-14T02:41:21;95901.59;;;17.58;42.36
40596;BME280;26304;48.794;9.820;2023-06-14T02:47:04;95896.31;;;17.55;42.25
40596;BME280;26304;48.794;9.820;2023-06-14T02:52:48;95895.59;;;17.79;42.00
40596;BME280;26304;48.794;9.820;2023-06-14T02:58:30;95892.59;;;17.63;42.46
40596;BME280;26304;48.794;9.820;2023-06-14T03:04:14;95892.19;;;17.47;42.45
40596;BME280;26304;48.794;9.820;2023-06-14T03:09:59;95891.06;;;17.33;43.21
40596;BME280;26304;48.794;9.820;2023-06-14T03:15:41;95889.47;;;17.03;43.36
40596;BME280;26304;48.794;9.820;2023-06-14T03:21:24;95891.41;;;17.24;43.72
40596;BME280;26304;48.794;9.820;2023-06-14T03:27:08;95901.13;;;17.02;43.69
40596;BME280;26304;48.794;9.820;2023-06-14T03:32:51;95901.81;;;16.92;44.11
40596;BME280;26304;48.794;9.820;2023-06-14T03:38:37;95900.78;;;17.22;43.91
40596;BME280;26304;48.794;9.820;2023-06-14T03:44:20;95906.78;;;17.26;43.64
40596;BME280;26304;48.794;9.820;2023-06-14T03:50:03;95904.56;;;17.35;43.72
40596;BME280;26304;48.794;9.820;2023-06-14T03:55:46;95919.19;;;17.29;43.88
40596;BME280;26304;48.794;9.820;2023-06-14T04:01:31;95926.31;;;17.29;43.82
40596;BME280;26304;48.794;9.820;2023-06-14T04:07:14;95937.25;;;16.53;44.93
40596;BME280;26304;48.794;9.820;2023-06-14T04:13:00;95933.81;;;16.46;45.41
40596;BME280;26304;48.794;9.820;2023-06-14T04:18:44;95939.22;;;16.78;45.50
40596;BME280;26304;48.794;9.820;2023-06-14T04:24:28;95945.44;;;17.18;44.42
40596;BME280;26304;48.794;9.820;2023-06-14T04:30:13;95952.53;;;17.18;45.19
40596;BME280;26304;48.794;9.820;2023-06-14T04:35:56;95946.97;;;17.37;44.28
40596;BME280;26304;48.794;9.820;2023-06-14T04:41:41;95953.88;;;16.83;45.85
40596;BME280;26304;48.794;9.820;2023-06-14T04:47:23;95953.28;;;17.08;45.59
40596;BME280;26304;48.794;9.820;2023-06-14T04:53:12;95963.63;;;16.79;46.04
40596;BME280;26304;48.794;9.820;2023-06-14T04:58:54;95967.59;;;17.28;44.83
40596;BME280;26304;48.794;9.820;2023-06-14T05:04:37;95968.34;;;17.29;44.90
40596;BME280;26304;48.794;9.820;2023-06-14T05:10:22;95970.59;;;17.27;45.47
40596;BME280;26304;48.794;9.820;2023-06-14T05:16:04;95970.50;;;16.98;46.25
40596;BME280;26304;48.794;9.820;2023-06-14T05:21:47;95970.97;;;17.32;46.46
40596;BME280;26304;48.794;9.820;2023-06-14T05:27:31;95980.78;;;17.46;46.14
40596;BME280;26304;48.794;9.820;2023-06-14T05:33:15;95985.69;;;17.69;45.51
40596;BME280;26304;48.794;9.820;2023-06-14T05:38:58;95992.13;;;17.86;45.08
40596;BME280;26304;48.794;9.820;2023-06-14T05:44:42;96001.91;;;17.93;44.86
40596;BME280;26304;48.794;9.820;2023-06-14T05:50:24;95995.16;;;17.99;44.71
40596;BME280;26304;48.794;9.820;2023-06-14T05:56:07;95993.31;;;18.03;44.61
40596;BME280;26304;48.794;9.820;2023-06-14T06:01:51;95997.44;;;18.11;44.05
40596;BME280;26304;48.794;9.820;2023-06-14T06:07:33;95995.16;;;18.13;44.38
40596;BME280;26304;48.794;9.820;2023-06-14T06:13:15;96003.06;;;18.17;44.14
40596;BME280;26304;48.794;9.820;2023-06-14T06:18:59;96004.56;;;18.22;43.89
40596;BME280;26304;48.794;9.820;2023-06-14T06:24:42;96010.94;;;18.31;43.97
40596;BME280;26304;48.794;9.820;2023-06-14T06:30:25;96019.63;;;18.32;44.20
40596;BME280;26304;48.794;9.820;2023-06-14T06:36:09;96018.47;;;18.37;44.38
40596;BME280;26304;48.794;9.820;2023-06-14T06:41:51;96026.38;;;18.40;44.38
40596;BME280;26304;48.794;9.820;2023-06-14T06:47:34;96024.47;;;18.44;44.47
40596;BME280;26304;48.794;9.820;2023-06-14T06:53:18;96029.75;;;18.48;44.41
40596;BME280;26304;48.794;9.820;2023-06-14T06:59:00;96036.91;;;18.51;44.10
40596;BME280;26304;48.794;9.820;2023-06-14T07:04:43;96041.78;;;18.49;44.39
40596;BME280;26304;48.794;9.820;2023-06-14T07:10:27;96039.13;;;18.49;44.14
40596;BME280;26304;48.794;9.820;2023-06-14T07:16:10;96049.69;;;18.52;43.88
40596;BME280;26304;48.794;9.820;2023-06-14T07:21:52;96057.22;;;18.54;43.68
40596;BME280;26304;48.794;9.820;2023-06-14T07:27:36;96060.19;;;18.60;44.03
40596;BME280;26304;48.794;9.820;2023-06-14T07:33:19;96058.69;;;18.59;44.27
40596;BME280;26304;48.794;9.820;2023-06-14T07:39:01;96066.19;;;18.60;44.15
40596;BME280;26304;48.794;9.820;2023-06-14T07:44:46;96077.50;;;18.64;44.01
40596;BME280;26304;48.794;9.820;2023-06-14T07:50:28;96072.22;;;18.68;43.79
40596;BME280;26304;48.794;9.820;2023-06-14T07:56:11;96076.75;;;18.67;44.00
40596;BME280;26304;48.794;9.820;2023-06-14T08:01:55;96074.09;;;18.71;43.75
40596;BME280;26304;48.794;9.820;2023-06-14T08:07:37;96073.72;;;18.73;43.68
40596;BME280;26304;48.794;9.820;2023-06-14T08:13:20;96073.72;;;18.76;43.64
40596;BME280;26304;48.794;9.820;2023-06-14T08:19:04;96076.00;;;18.85;43.94
40596;BME280;26304;48.794;9.820;2023-06-14T08:24:46;96085.03;;;18.87;43.86
40596;BME280;26304;48.794;9.820;2023-06-14T08:30:29;96079.00;;;18.87;43.94
40596;BME280;26304;48.794;9.820;2023-06-14T08:36:13;96081.25;;;18.88;43.95
40596;BME280;26304;48.794;9.820;2023-06-14T08:41:56;96081.25;;;18.92;43.78
40596;BME280;26304;48.794;9.820;2023-06-14T08:47:40;96084.63;;;18.96;43.65
40596;BME280;26304;48.794;9.820;2023-06-14T08:53:24;96095.16;;;19.00;43.83
40596;BME280;26304;48.794;9.820;2023-06-14T08:59:07;96099.31;;;19.01;43.60
40596;BME280;26304;48.794;9.820;2023-06-14T09:04:52;96089.50;;;19.01;44.21
40596;BME280;26304;48.794;9.820;2023-06-14T09:10:36;96103.09;;;19.03;43.98
40596;BME280;26304;48.794;9.820;2023-06-14T09:16:19;96095.88;;;19.11;43.87
40596;BME280;26304;48.794;9.820;2023-06-14T09:22:03;96090.25;;;19.16;44.38
40596;BME280;26304;48.794;9.820;2023-06-14T09:27:47;96095.50;;;19.20;43.92
40596;BME280;26304;48.794;9.820;2023-06-14T09:33:31;96097.00;;;19.24;43.98
40596;BME280;26304;48.794;9.820;2023-06-14T09:39:18;96102.28;;;19.24;44.09
40596;BME280;26304;48.794;9.820;2023-06-14T09:45:03;96108.28;;;19.29;44.01
40596;BME280;26304;48.794;9.820;2023-06-14T09:50:46;96099.59;;;19.32;43.75
40596;BME280;26304;48.794;9.820;2023-06-14T09:56:31;96099.22;;;19.33;44.34
40596;BME280;26304;48.794;9.820;2023-06-14T10:02:29;96097.34;;;19.30;44.05
40596;BME280;26304;48.794;9.820;2023-06-14T10:08:14;96096.97;;;19.32;44.16
40596;BME280;26304;48.794;9.820;2023-06-14T10:14:01;96102.53;;;19.63;45.32
40596;BME280;26304;48.794;9.820;2023-06-14T10:19:50;96105.88;;;19.74;45.44
40596;BME280;26304;48.794;9.820;2023-06-14T10:25:34;96096.81;;;19.75;44.68
40596;BME280;26304;48.794;9.820;2023-06-14T10:31:16;96091.59;;;19.60;44.82
40596;BME280;26304;48.794;9.820;2023-06-14T10:37:05;96090.09;;;19.63;44.26
40596;BME280;26304;48.794;9.820;2023-06-14T10:42:51;96089.31;;;19.77;44.94
40596;BME280;26304;48.794;9.820;2023-06-14T10:48:34;96082.88;;;19.78;45.65
40596;BME280;26304;48.794;9.820;2023-06-14T10:54:24;96075.69;;;19.86;45.86
40596;BME280;26304;48.794;9.820;2023-06-14T11:00:10;96082.44;;;19.90;45.32
40596;BME280;26304;48.794;9.820;2023-06-14T11:06:13;96081.34;;;19.84;45.77
40596;BME280;26304;48.794;9.820;2023-06-14T11:11:57;96083.56;;;19.96;46.04
40596;BME280;26304;48.794;9.820;2023-06-14T11:17:50;96076.75;;;19.95;45.43
40596;BME280;26304;48.794;9.820;2023-06-14T11:23:34;96077.94;;;19.87;45.21
40596;BME280;26304;48.794;9.820;2023-06-14T11:29:20;96077.19;;;19.87;45.36
40596;BME280;26304;48.794;9.820;2023-06-14T11:35:03;96079.44;;;19.88;45.34
40596;BME280;26304;48.794;9.820;2023-06-14T11:40:46;96082.84;;;19.89;45.07
40596;BME280;26304;48.794;9.820;2023-06-14T11:46:29;96078.69;;;19.91;45.41
40596;BME280;26304;48.794;9.820;2023-06-14T11:52:12;96073.75;;;19.93;44.90
40596;BME280;26304;48.794;9.820;2023-06-14T11:57:55;96072.63;;;19.94;45.08
40596;BME280;26304;48.794;9.820;2023-06-14T12:03:47;96080.91;;;19.96;45.20
40596;BME280;26304;48.794;9.820;2023-06-14T12:09:30;96078.63;;;19.99;45.07
40596;BME280;26304;48.794;9.820;2023-06-14T12:15:12;96065.06;;;20.00;45.20
40596;BME280;26304;48.794;9.820;2023-06-14T12:20:58;96065.34;;;20.13;45.09
40596;BME280;26304;48.794;9.820;2023-06-14T12:26:43;96062.13;;;20.43;45.68
40596;BME280;26304;48.794;9.820;2023-06-14T12:32:26;96055.31;;;20.46;46.13
40596;BME280;26304;48.794;9.820;2023-06-14T12:38:10;96061.28;;;20.54;46.01
40596;BME280;26304;48.794;9.820;2023-06-14T12:43:53;96072.91;;;20.63;45.74
40596;BME280;26304;48.794;9.820;2023-06-14T12:49:35;96074.31;;;20.75;45.54
40596;BME280;26304;48.794;9.820;2023-06-14T12:55:19;96074.19;;;20.90;45.36
40596;BME280;26304;48.794;9.820;2023-06-14T13:01:01;96068.09;;;20.96;45.37
40596;BME280;26304;48.794;9.820;2023-06-14T13:06:44;96073.81;;;20.91;45.36
40596;BME280;26304;48.794;9.820;2023-06-14T13:12:28;96082.75;;;21.04;45.18
40596;BME280;26304;48.794;9.820;2023-06-14T13:18:10;96083.16;;;20.99;45.30
40596;BME280;26304;48.794;9.820;2023-06-14T13:23:54;96067.25;;;21.07;45.20
40596;BME280;26304;48.794;9.820;2023-06-14T13:29:38;96080.66;;;21.23;45.14
40596;BME280;26304;48.794;9.820;2023-06-14T13:35:20;96079.91;;;21.22;45.23
40596;BME280;26304;48.794;9.820;2023-06-14T13:41:02;96088.88;;;21.32;45.01
40596;BME280;26304;48.794;9.820;2023-06-14T13:46:46;96075.25;;;21.34;45.13
40596;BME280;26304;48.794;9.820;2023-06-14T13:52:29;96078.25;;;21.36;44.63
40596;BME280;26304;48.794;9.820;2023-06-14T13:58:11;96067.19;;;21.45;45.08
40596;BME280;26304;48.794;9.820;2023-06-14T14:03:57;96064.09;;;21.53;44.96
40596;BME280;26304;48.794;9.820;2023-06-14T14:09:39;96065.88;;;21.60;44.87
40596;BME280;26304;48.794;9.820;2023-06-14T14:15:25;96066.22;;;21.66;44.68
40596;BME280;26304;48.794;9.820;2023-06-14T14:21:09;96061.25;;;21.68;44.66
40596;BME280;26304;48.794;9.820;2023-06-14T14:26:51;96060.88;;;21.69;44.59
40596;BME280;26304;48.794;9.820;2023-06-14T14:32:34;96067.28;;;21.72;44.42
40596;BME280;26304;48.794;9.820;2023-06-14T14:38:18;96067.94;;;21.80;44.53
40596;BME280;26304;48.794;9.820;2023-06-14T14:44:01;96070.13;;;21.85;44.37
40596;BME280;26304;48.794;9.820;2023-06-14T14:49:43;96076.28;;;21.78;44.55
40596;BME280;26304;48.794;9.820;2023-06-14T14:55:27;96076.75;;;21.69;44.89
40596;BME280;26304;48.794;9.820;2023-06-14T15:01:10;96078.31;;;21.67;45.43
40596;BME280;26304;48.794;9.820;2023-06-14T15:06:52;96079.03;;;21.67;45.45
40596;BME280;26304;48.794;9.820;2023-06-14T15:12:36;96080.22;;;21.63;45.17
40596;BME280;26304;48.794;9.820;2023-06-14T15:18:18;96084.00;;;21.62;44.97
40596;BME280;26304;48.794;9.820;2023-06-14T15:24:02;96085.56;;;21.59;45.00
40596;BME280;26304;48.794;9.820;2023-06-14T15:29:46;96090.88;;;21.55;45.12
40596;BME280;26304;48.794;9.820;2023-06-14T15:35:29;96090.88;;;21.55;44.91
40596;BME280;26304;48.794;9.820;2023-06-14T15:41:11;96086.41;;;21.52;44.84
40596;BME280;26304;48.794;9.820;2023-06-14T15:46:55;96077.38;;;21.50;45.01
40596;BME280;26304;48.794;9.820;2023-06-14T15:52:37;96082.66;;;21.50;45.08
40596;BME280;26304;48.794;9.820;2023-06-14T15:58:20;96072.84;;;21.47;44.88
40596;BME280;26304;48.794;9.820;2023-06-14T16:04:04;96077.19;;;21.64;44.86
40596;BME280;26304;48.794;9.820;2023-06-14T16:09:47;96087.72;;;21.68;45.03
40596;BME280;26304;48.794;9.820;2023-06-14T16:15:29;96073.56;;;21.82;45.49
40596;BME280;26304;48.794;9.820;2023-06-14T16:21:13;96087.09;;;22.14;45.08
40596;BME280;26304;48.794;9.820;2023-06-14T16:26:57;96093.28;;;22.04;45.48
40596;BME280;26304;48.794;9.820;2023-06-14T16:32:40;96094.22;;;22.18;45.33
40596;BME280;26304;48.794;9.820;2023-06-14T16:38:24;96102.00;;;22.32;45.16
40596;BME280;26304;48.794;9.820;2023-06-14T16:44:06;96095.91;;;22.35;45.02
40596;BME280;26304;48.794;9.820;2023-06-14T16:49:49;96093.75;;;22.26;44.90
40596;BME280;26304;48.794;9.820;2023-06-14T16:55:33;96102.72;;;22.36;44.08
40596;BME280;26304;48.794;9.820;2023-06-14T17:01:17;96101.09;;;22.42;43.36
40596;BME280;26304;48.794;9.820;2023-06-14T17:06:59;96118.50;;;22.43;43.18
40596;BME280;26304;48.794;9.820;2023-06-14T17:12:44;96114.19;;;22.53;43.15
40596;BME280;26304;48.794;9.820;2023-06-14T17:18:27;96122.34;;;22.39;43.47
40596;BME280;26304;48.794;9.820;2023-06-14T17:24:09;96130.81;;;22.54;42.65
40596;BME280;26304;48.794;9.820;2023-06-14T17:29:53;96131.81;;;22.63;42.15
40596;BME280;26304;48.794;9.820;2023-06-14T17:35:36;96131.13;;;22.59;42.15
40596;BME280;26304;48.794;9.820;2023-06-14T17:41:18;96137.81;;;22.67;41.77
40596;BME280;26304;48.794;9.820;2023-06-14T17:47:03;96144.66;;;22.65;42.27
40596;BME280;26304;48.794;9.820;2023-06-14T17:52:46;96152.13;;;22.70;42.58
40596;BME280;26304;48.794;9.820;2023-06-14T17:58:28;96152.94;;;22.91;43.39
40596;BME280;26304;48.794;9.820;2023-06-14T18:04:12;96156.53;;;23.04;43.48
40596;BME280;26304;48.794;9.820;2023-06-14T18:09:55;96168.81;;;23.18;43.97
40596;BME280;26304;48.794;9.820;2023-06-14T18:15:37;96168.06;;;23.17;43.51
40596;BME280;26304;48.794;9.820;2023-06-14T18:21:21;96168.78;;;23.21;43.67
40596;BME280;26304;48.794;9.820;2023-06-14T18:27:04;96177.81;;;23.24;43.77
40596;BME280;26304;48.794;9.820;2023-06-14T18:32:49;96180.06;;;23.26;44.02
40596;BME280;26304;48.794;9.820;2023-06-14T18:38:33;96186.78;;;23.30;43.92
40596;BME280;26304;48.794;9.820;2023-06-14T18:44:17;96188.75;;;23.26;44.04
40596;BME280;26304;48.794;9.820;2023-06-14T18:49:59;96192.97;;;23.24;44.14
40596;BME280;26304;48.794;9.820;2023-06-14T18:55:44;96194.06;;;23.26;44.10
40596;BME280;26304;48.794;9.820;2023-06-14T19:01:28;96202.22;;;23.15;44.24
40596;BME280;26304;48.794;9.820;2023-06-14T19:07:10;96206.22;;;23.00;42.52
40596;BME280;26304;48.794;9.820;2023-06-14T19:12:54;96203.81;;;22.27;40.74
40596;BME280;26304;48.794;9.820;2023-06-14T19:18:36;96218.50;;;22.01;40.43
40596;BME280;26304;48.794;9.820;2023-06-14T19:24:19;96213.31;;;21.56;40.63
40596;BME280;26304;48.794;9.820;2023-06-14T19:30:04;96215.63;;;21.50;40.74
40596;BME280;26304;48.794;9.820;2023-06-14T19:35:47;96223.72;;;21.32;41.03
40596;BME280;26304;48.794;9.820;2023-06-14T19:41:29;96223.50;;;21.16;41.00
40596;BME280;26304;48.794;9.820;2023-06-14T19:47:13;96238.31;;;21.02;41.31
40596;BME280;26304;48.794;9.820;2023-06-14T19:52:55;96232.69;;;20.93;41.36
40596;BME280;26304;48.794;9.820;2023-06-14T19:58:38;96247.09;;;20.89;41.30
40596;BME280;26304;48.794;9.820;2023-06-14T20:04:22;96252.81;;;20.80;41.55
40596;BME280;26304;48.794;9.820;2023-06-14T20:10:05;96261.91;;;20.72;41.56
40596;BME280;26304;48.794;9.820;2023-06-14T20:15:48;96271.38;;;20.62;41.72
40596;BME280;26304;48.794;9.820;2023-06-14T20:21:32;96265.41;;;20.50;41.83
40596;BME280;26304;48.794;9.820;2023-06-14T20:27:14;96262.41;;;20.45;42.12
40596;BME280;26304;48.794;9.820;2023-06-14T20:32:57;96258.97;;;20.48;41.87
40596;BME280;26304;48.794;9.820;2023-06-14T20:38:41;96271.50;;;20.33;42.35
40596;BME280;26304;48.794;9.820;2023-06-14T20:44:24;96263.97;;;20.31;41.85
40596;BME280;26304;48.794;9.820;2023-06-14T20:50:10;96262.50;;;20.23;42.24
40596;BME280;26304;48.794;9.820;2023-06-14T20:55:54;96260.63;;;20.17;42.45
40596;BME280;26304;48.794;9.820;2023-06-14T21:01:36;96257.28;;;20.05;42.60
40596;BME280;26304;48.794;9.820;2023-06-14T21:07:19;96265.59;;;19.89;42.76
40596;BME280;26304;48.794;9.820;2023-06-14T21:13:02;96274.66;;;19.70;42.92
40596;BME280;26304;48.794;9.820;2023-06-14T21:18:45;96263.38;;;19.63;43.54
40596;BME280;26304;48.794;9.820;2023-06-14T21:24:28;96258.84;;;19.67;43.08
40596;BME280;26304;48.794;9.820;2023-06-14T21:30:14;96258.47;;;19.79;43.35
40596;BME280;26304;48.794;9.820;2023-06-14T21:35:57;96260.34;;;19.71;43.09
40596;BME280;26304;48.794;9.820;2023-06-14T21:41:39;96258.47;;;19.57;43.33
40596;BME280;26304;48.794;9.820;2023-06-14T21:47:23;96255.84;;;19.65;43.75
40596;BME280;26304;48.794;9.820;2023-06-14T21:53:05;96260.00;;;19.51;43.83
40596;BME280;26304;48.794;9.820;2023-06-14T21:58:48;96269.41;;;19.41;43.65
40596;BME280;26304;48.794;9.820;2023-06-14T22:04:31;96264.50;;;19.40;43.78
40596;BME280;26304;48.794;9.820;2023-06-14T22:10:14;96267.16;;;19.40;43.76
40596;BME280;26304;48.794;9.820;2023-06-14T22:15:58;96271.28;;;19.55;44.07
40596;BME280;26304;48.794;9.820;2023-06-14T22:21:42;96269.78;;;19.54;44.17
40596;BME280;26304;48.794;9.820;2023-06-14T22:27:25;96267.53;;;19.35;44.62
40596;BME280;26304;48.794;9.820;2023-06-14T22:33:09;96269.78;;;19.36;44.32
40596;BME280;26304;48.794;9.820;2023-06-14T22:38:53;96273.19;;;19.37;44.40
40596;BME280;26304;48.794;9.820;2023-06-14T22:44:36;96281.47;;;19.42;44.62
40596;BME280;26304;48.794;9.820;2023-06-14T22:50:20;96281.09;;;19.37;44.66
40596;BME280;26304;48.794;9.820;2023-06-14T22:56:05;96289.00;;;19.30;45.04
40596;BME280;26304;48.794;9.820;2023-06-14T23:01:47;96290.50;;;19.20;45.15
40596;BME280;26304;48.794;9.820;2023-06-14T23:07:31;96290.50;;;19.02;45.48
40596;BME280;26304;48.794;9.820;2023-06-14T23:13:16;96289.72;;;18.98;45.75
40596;BME280;26304;48.794;9.820;2023-06-14T23:18:58;96289.34;;;18.88;45.94
40596;BME280;26304;48.794;9.820;2023-06-14T23:24:41;96288.44;;;18.48;46.59
40596;BME280;26304;48.794;9.820;2023-06-14T23:30:25;96285.91;;;18.70;46.52
40596;BME280;26304;48.794;9.820;2023-06-14T23:36:07;96286.97;;;18.58;46.94
40596;BME280;26304;48.794;9.820;2023-06-14T23:41:50;96291.88;;;18.63;46.70
40596;BME280;26304;48.794;9.820;2023-06-14T23:47:34;96292.59;;;18.49;46.77
40596;BME280;26304;48.794;9.820;2023-06-14T23:53:16;96301.66;;;18.56;46.75
40596;BME280;26304;48.794;9.820;2023-06-14T23:59:00;96300.03;;;18.29;47.84
